createdAt,value
2019-04-10T06:00:37.500Z,2.90
2019-04-10T06:06:44.249Z,3.30
2019-04-10T06:09:36.522Z,3.97
2019-04-10T06:12:18.151Z,3.60
2019-04-10T06:21:10.832Z,3.50
2019-04-10T06:34:30.171Z,3.05
2019-04-10T06:37:17.651Z,4.08
2019-04-10T06:40:16.421Z,3.30
2019-04-10T06:47:13.832Z,3.50
2019-04-10T06:49:59.014Z,3.23
2019-04-10T06:52:51.803Z,3.60
2019-04-10T06:55:36.504Z,3.37
2019-04-10T06:58:41.064Z,4.28
2019-04-10T07:13:49.101Z,2.83
2019-04-10T07:35:13.947Z,3.05
2019-04-10T07:38:33.291Z,3.17
2019-04-10T07:50:37.769Z,3.37
2019-04-10T07:56:44.219Z,2.97
2019-04-10T08:14:03.480Z,3.55
2019-04-10T08:17:16.367Z,4.12
2019-04-10T08:20:01.907Z,3.85
2019-04-10T08:26:10.068Z,3.30
2019-04-10T08:28:54.022Z,2.72
2019-04-10T10:38:43.377Z,3.80
2019-04-10T10:42:03.283Z,2.47
2019-04-10T11:12:26.371Z,2.70
2019-04-10T11:17:29.743Z,3.00
2019-04-10T13:50:29.322Z,2.02
2019-04-10T13:53:07.939Z,1.60
2019-04-10T13:55:49.131Z,1.50
2019-04-10T13:58:31.084Z,1.97
2019-04-10T14:01:17.546Z,1.17
2019-04-10T14:07:02.211Z,1.65
2019-04-10T14:09:51.553Z,2.27
2019-04-10T14:12:31.118Z,1.37
2019-04-10T14:15:16.011Z,1.52
2019-04-10T14:18:02.157Z,2.35
2019-04-10T14:20:48.374Z,4.20
2019-04-10T14:23:33.202Z,2.50
2019-04-10T14:26:54.219Z,1.52
2019-04-10T14:29:40.746Z,1.40
2019-04-10T14:32:35.509Z,1.50
2019-04-10T14:35:23.298Z,1.98
2019-04-10T14:38:08.592Z,1.30
2019-04-10T14:40:55.537Z,2.70
2019-04-10T14:43:35.350Z,3.58
2019-04-10T14:46:14.875Z,2.65
2019-04-10T14:48:57.082Z,3.02
2019-04-10T14:51:36.659Z,2.35
2019-04-10T14:57:18.933Z,2.72
2019-04-10T15:00:02.791Z,3.95
2019-04-10T15:02:46.525Z,3.77
2019-04-10T15:05:44.689Z,1.22
2019-04-10T15:08:27.880Z,1.60
2019-04-10T15:11:10.827Z,1.52
2019-04-10T15:13:50.772Z,2.42
2019-04-10T15:16:31.461Z,2.00
2019-04-10T15:19:20.441Z,2.60
2019-04-10T15:22:03.240Z,1.70
2019-04-10T15:24:45.266Z,1.80
2019-04-10T15:27:30.922Z,2.20
2019-04-10T15:30:13.126Z,2.60
2019-04-10T15:32:58.282Z,1.70
2019-04-10T15:35:42.924Z,1.67
2019-04-10T15:38:21.979Z,1.50
2019-04-10T15:41:00.812Z,1.52
2019-04-10T15:43:39.334Z,1.12
2019-04-10T15:46:21.207Z,2.12
2019-04-10T15:48:58.461Z,1.98
2019-04-10T15:51:36.216Z,2.40
2019-04-10T15:54:13.837Z,1.92
2019-04-10T15:56:52.111Z,2.17
2019-04-10T15:59:38.557Z,1.80
2019-04-10T16:02:21.955Z,1.77
2019-04-10T16:05:04.765Z,2.60
2019-04-10T16:07:51.283Z,2.10
2019-04-10T16:10:37.094Z,3.37
2019-04-10T16:13:52.644Z,3.33
2019-04-10T16:17:11.093Z,3.47
2019-04-10T16:19:56.386Z,2.65
2019-04-10T16:22:44.936Z,2.00
2019-04-10T16:25:34.112Z,1.85
2019-04-10T16:28:12.590Z,1.30
2019-04-10T16:30:50.927Z,1.72
2019-04-10T16:33:29.348Z,1.30
2019-04-10T16:36:08.484Z,2.72
2019-04-10T16:38:57.456Z,2.72
2019-04-10T16:41:37.625Z,4.65
2019-04-10T16:44:19.156Z,3.87
2019-04-10T16:47:03.677Z,4.40
2019-04-10T16:49:47.471Z,2.70
2019-04-10T16:52:29.264Z,2.30
2019-04-10T16:55:10.552Z,2.10
2019-04-10T16:57:56.901Z,1.60
2019-04-10T17:14:39.869Z,3.58
2019-04-10T17:17:23.202Z,3.50
2019-04-10T17:20:02.945Z,2.67
2019-04-10T17:22:47.704Z,2.72
2019-04-10T17:25:26.244Z,2.70
2019-04-10T17:28:10.110Z,3.05
2019-04-10T17:30:51.817Z,2.92
2019-04-10T17:33:30.039Z,3.53
2019-04-10T17:36:09.834Z,4.10
2019-04-10T17:38:50.933Z,4.33
2019-04-10T17:41:31.303Z,4.97
2019-04-10T17:44:14.376Z,4.87
2019-04-10T17:46:52.280Z,5.33
2019-04-10T17:49:39.212Z,5.80
2019-04-10T17:52:18.619Z,3.67
2019-04-10T17:54:59.200Z,3.60
2019-04-10T17:57:40.207Z,2.50
2019-04-10T18:00:33.385Z,2.07
2019-04-10T18:03:39.669Z,1.90
2019-04-10T18:06:15.424Z,2.35
2019-04-10T18:09:18.124Z,3.52
2019-04-10T18:12:06.181Z,3.40
2019-04-10T18:20:42.244Z,2.72
2019-04-10T18:23:29.553Z,2.15
2019-04-10T18:26:53.634Z,1.70
2019-04-10T18:29:48.127Z,1.57
2019-04-10T18:32:42.151Z,1.57
2019-04-10T18:35:22.561Z,2.00
2019-04-10T18:38:17.402Z,2.52
2019-04-10T18:41:05.575Z,3.35
2019-04-10T18:43:47.267Z,3.30
2019-04-10T18:46:39.496Z,3.15
2019-04-10T18:49:19.001Z,3.47
2019-04-10T18:51:58.423Z,2.93
2019-04-10T18:54:41.509Z,4.15
2019-04-10T18:57:19.955Z,3.85
2019-04-10T19:00:16.832Z,3.47
2019-04-10T19:03:18.950Z,4.40
2019-04-10T19:06:18.355Z,4.23
2019-04-10T19:09:08.301Z,4.30
2019-04-10T19:11:38.401Z,4.90
2019-04-10T19:14:24.666Z,4.97
2019-04-10T19:17:13.086Z,5.17
2019-04-10T19:19:50.701Z,5.97
2019-04-10T19:22:42.328Z,7.07
2019-04-10T19:25:24.893Z,6.53
2019-04-10T19:28:06.661Z,7.00
2019-04-10T19:30:51.474Z,7.57
2019-04-10T19:37:08.098Z,4.97
2019-04-10T19:39:54.320Z,5.67
2019-04-10T19:42:39.730Z,6.60
2019-04-10T19:45:23.725Z,7.22
2019-04-10T19:48:04.402Z,6.22
2019-04-10T19:50:47.768Z,7.80
2019-04-10T19:53:24.863Z,6.87
2019-04-10T19:56:06.511Z,6.60
2019-04-10T19:58:54.403Z,6.55
2019-04-10T20:01:39.105Z,6.58
2019-04-10T20:04:22.534Z,5.50
2019-04-10T20:07:06.946Z,4.67
2019-04-10T20:09:48.782Z,4.70
2019-04-10T20:12:30.764Z,6.22
2019-04-10T20:15:10.042Z,8.90
2019-04-10T20:17:50.413Z,5.87
2019-04-10T20:22:27.911Z,3.15
2019-04-10T20:25:16.405Z,3.12
2019-04-10T20:27:58.503Z,2.30
2019-04-10T20:30:40.455Z,1.93
2019-04-10T20:33:21.198Z,1.76
2019-04-10T20:35:59.098Z,1.80
2019-04-10T20:38:40.761Z,1.70
2019-04-10T20:41:22.454Z,1.65
2019-04-10T20:44:04.182Z,2.00
2019-04-10T20:46:46.579Z,2.23
2019-04-10T20:49:24.374Z,1.80
2019-04-10T20:52:02.131Z,2.05
2019-04-10T20:54:39.570Z,2.40
2019-04-10T20:57:21.406Z,2.43
2019-04-10T21:00:02.950Z,2.58
2019-04-10T21:02:42.559Z,2.90
2019-04-10T21:05:28.243Z,3.05
2019-04-10T21:08:13.749Z,3.40
2019-04-10T21:10:52.481Z,3.77
2019-04-10T21:13:32.621Z,3.58
2019-04-10T21:16:11.665Z,3.52
2019-04-10T21:18:48.288Z,4.28
2019-04-10T21:21:36.936Z,4.53
2019-04-10T21:24:17.462Z,3.92
2019-04-10T21:27:01.223Z,3.58
2019-04-10T21:29:41.926Z,3.70
2019-04-10T21:32:28.674Z,3.43
2019-04-10T21:35:07.555Z,3.53
2019-04-10T21:37:46.561Z,3.80
2019-04-10T21:40:25.141Z,4.03
2019-04-10T21:43:12.361Z,3.87
2019-04-10T21:45:49.969Z,3.63
2019-04-10T21:48:28.631Z,4.10
2019-04-10T21:51:08.800Z,3.80
2019-04-10T21:53:51.765Z,4.00
2019-04-10T21:56:29.661Z,4.03
2019-04-10T21:59:08.966Z,5.58
2019-04-10T22:01:52.806Z,4.58
2019-04-10T22:04:31.457Z,3.97
2019-04-10T22:07:18.104Z,3.10
2019-04-10T22:10:03.845Z,2.43
2019-04-10T22:12:45.506Z,2.80
2019-04-10T22:15:27.520Z,3.33
2019-04-10T22:18:05.646Z,3.97
2019-04-10T22:20:44.630Z,3.00
2019-04-10T22:23:24.733Z,3.10
2019-04-10T22:26:00.485Z,2.92
2019-04-10T22:28:37.357Z,2.87
2019-04-10T22:31:15.812Z,2.65
2019-04-10T22:33:54.976Z,1.92
2019-04-10T22:36:35.396Z,2.50
2019-04-10T22:39:19.005Z,2.10
2019-04-10T22:41:56.878Z,1.82
2019-04-10T22:44:41.975Z,1.97
2019-04-10T22:47:18.953Z,1.90
2019-04-10T22:49:55.687Z,1.77
2019-04-10T22:52:34.964Z,2.00
2019-04-10T22:55:21.740Z,2.17
2019-04-10T22:58:02.585Z,2.07
2019-04-10T23:00:45.975Z,2.27
2019-04-10T23:03:27.915Z,2.03
2019-04-10T23:06:09.008Z,2.30
2019-04-10T23:08:51.608Z,2.73
2019-04-10T23:11:39.087Z,2.10
2019-04-10T23:14:12.228Z,2.00
2019-04-10T23:16:52.550Z,2.30
2019-04-10T23:19:32.406Z,2.70
2019-04-10T23:22:11.813Z,2.83
2019-04-10T23:24:51.896Z,2.73
2019-04-10T23:27:28.249Z,2.93
2019-04-10T23:30:06.766Z,2.83
2019-04-10T23:32:48.662Z,2.67
2019-04-10T23:35:27.642Z,2.47
2019-04-10T23:38:11.003Z,2.70
2019-04-10T23:40:55.587Z,2.40
2019-04-10T23:43:33.175Z,2.77
2019-04-10T23:46:20.089Z,2.98
2019-04-10T23:48:59.727Z,3.00
2019-04-10T23:51:39.170Z,2.53
2019-04-10T23:54:17.247Z,2.27
2019-04-10T23:56:56.704Z,2.33
2019-04-10T23:59:39.109Z,2.37
